sensor_id;sensor_type;location;lat;lon;timestamp;P1;durP1;ratioP1;P2;durP2;ratioP2
65210;SDS011;51794;52.758;55.792;2022-09-01T00:01:55;10.18;;;8.57;;
65210;SDS011;51794;52.758;55.792;2022-09-01T00:04:21;12.13;;;8.13;;
65210;SDS011;51794;52.758;55.792;2022-09-01T00:06:53;11.52;;;8.73;;
65210;SDS011;51794;52.758;55.792;2022-09-01T00:09:20;11.05;;;8.07;;
65210;SDS011;51794;52.758;55.792;2022-09-01T00:11:48;13.30;;;8.32;;
65210;SDS011;51794;52.758;55.792;2022-09-01T00:14:19;12.80;;;8.15;;
65210;SDS011;51794;52.758;55.792;2022-09-01T00:16:46;10.37;;;8.10;;
65210;SDS011;51794;52.758;55.792;2022-09-01T00:19:12;10.70;;;7.72;;
65210;SDS011;51794;52.758;55.792;2022-09-01T00:21:40;9.60;;;7.60;;
65210;SDS011;51794;52.758;55.792;2022-09-01T00:24:08;13.73;;;7.85;;
65210;SDS011;51794;52.758;55.792;2022-09-01T00:26:36;11.35;;;7.72;;
65210;SDS011;51794;52.758;55.792;2022-09-01T00:29:02;14.15;;;7.82;;
65210;SDS011;51794;52.758;55.792;2022-09-01T00:31:29;11.65;;;6.82;;
65210;SDS011;51794;52.758;55.792;2022-09-01T00:33:55;10.60;;;7.47;;
65210;SDS011;51794;52.758;55.792;2022-09-01T00:36:21;11.35;;;7.40;;
65210;SDS011;51794;52.758;55.792;2022-09-01T00:38:48;13.65;;;7.18;;
65210;SDS011;51794;52.758;55.792;2022-09-01T00:41:16;9.88;;;7.03;;
65210;SDS011;51794;52.758;55.792;2022-09-01T00:43:48;9.52;;;6.75;;
65210;SDS011;51794;52.758;55.792;2022-09-01T00:46:37;9.73;;;6.03;;
65210;SDS011;51794;52.758;55.792;2022-09-01T00:51:35;7.55;;;5.50;;
65210;SDS011;51794;52.758;55.792;2022-09-01T00:54:05;6.65;;;5.90;;
65210;SDS011;51794;52.758;55.792;2022-09-01T00:56:37;9.27;;;5.43;;
65210;SDS011;51794;52.758;55.792;2022-09-01T00:59:05;9.18;;;6.20;;
65210;SDS011;51794;52.758;55.792;2022-09-01T01:01:33;9.20;;;5.80;;
65210;SDS011;51794;52.758;55.792;2022-09-01T01:04:04;8.27;;;5.80;;
65210;SDS011;51794;52.758;55.792;2022-09-01T01:06:42;8.45;;;5.60;;
65210;SDS011;51794;52.758;55.792;2022-09-01T01:09:17;9.90;;;5.75;;
65210;SDS011;51794;52.758;55.792;2022-09-01T01:11:46;11.35;;;5.50;;
65210;SDS011;51794;52.758;55.792;2022-09-01T01:14:14;8.23;;;5.05;;
65210;SDS011;51794;52.758;55.792;2022-09-01T01:16:43;7.93;;;5.40;;
65210;SDS011;51794;52.758;55.792;2022-09-01T01:19:24;12.23;;;5.60;;
65210;SDS011;51794;52.758;55.792;2022-09-01T01:25:22;8.02;;;5.00;;
65210;SDS011;51794;52.758;55.792;2022-09-01T01:27:48;11.48;;;4.97;;
65210;SDS011;51794;52.758;55.792;2022-09-01T01:30:15;7.10;;;5.18;;
65210;SDS011;51794;52.758;55.792;2022-09-01T01:32:43;7.53;;;5.13;;
65210;SDS011;51794;52.758;55.792;2022-09-01T01:35:12;7.88;;;5.75;;
65210;SDS011;51794;52.758;55.792;2022-09-01T01:37:41;8.65;;;5.50;;
65210;SDS011;51794;52.758;55.792;2022-09-01T01:40:17;7.15;;;5.03;;
65210;SDS011;51794;52.758;55.792;2022-09-01T01:42:48;8.65;;;5.38;;
65210;SDS011;51794;52.758;55.792;2022-09-01T01:45:17;8.10;;;5.25;;
65210;SDS011;51794;52.758;55.792;2022-09-01T01:47:46;8.30;;;5.03;;
65210;SDS011;51794;52.758;55.792;2022-09-01T01:50:21;7.13;;;5.20;;
65210;SDS011;51794;52.758;55.792;2022-09-01T01:52:51;7.60;;;5.22;;
65210;SDS011;51794;52.758;55.792;2022-09-01T01:55:19;9.30;;;5.50;;
65210;SDS011;51794;52.758;55.792;2022-09-01T01:57:46;8.73;;;5.60;;
65210;SDS011;51794;52.758;55.792;2022-09-01T02:00:17;7.80;;;5.47;;
65210;SDS011;51794;52.758;55.792;2022-09-01T02:02:46;8.60;;;5.75;;
65210;SDS011;51794;52.758;55.792;2022-09-01T02:05:38;9.23;;;5.45;;
65210;SDS011;51794;52.758;55.792;2022-09-01T02:08:04;8.90;;;6.18;;
65210;SDS011;51794;52.758;55.792;2022-09-01T02:10:34;9.07;;;4.90;;
65210;SDS011;51794;52.758;55.792;2022-09-01T02:13:06;6.30;;;5.30;;
65210;SDS011;51794;52.758;55.792;2022-09-01T02:15:38;8.65;;;5.10;;
65210;SDS011;51794;52.758;55.792;2022-09-01T02:18:17;7.25;;;5.18;;
65210;SDS011;51794;52.758;55.792;2022-09-01T02:20:46;9.48;;;5.32;;
65210;SDS011;51794;52.758;55.792;2022-09-01T02:23:14;6.38;;;4.70;;
65210;SDS011;51794;52.758;55.792;2022-09-01T02:25:44;7.72;;;4.65;;
65210;SDS011;51794;52.758;55.792;2022-09-01T02:28:11;6.90;;;4.85;;
65210;SDS011;51794;52.758;55.792;2022-09-01T02:30:43;6.50;;;4.65;;
65210;SDS011;51794;52.758;55.792;2022-09-01T02:33:14;8.55;;;4.93;;
65210;SDS011;51794;52.758;55.792;2022-09-01T02:35:44;7.75;;;4.47;;
65210;SDS011;51794;52.758;55.792;2022-09-01T02:38:12;8.88;;;5.22;;
65210;SDS011;51794;52.758;55.792;2022-09-01T02:40:39;7.03;;;4.55;;
65210;SDS011;51794;52.758;55.792;2022-09-01T02:43:12;5.85;;;4.70;;
65210;SDS011;51794;52.758;55.792;2022-09-01T02:45:48;9.07;;;4.68;;
65210;SDS011;51794;52.758;55.792;2022-09-01T02:48:25;6.25;;;4.53;;
65210;SDS011;51794;52.758;55.792;2022-09-01T02:50:57;12.18;;;4.75;;
65210;SDS011;51794;52.758;55.792;2022-09-01T02:53:27;6.28;;;4.95;;
65210;SDS011;51794;52.758;55.792;2022-09-01T02:55:53;6.45;;;4.72;;
65210;SDS011;51794;52.758;55.792;2022-09-01T02:58:23;9.40;;;4.82;;
65210;SDS011;51794;52.758;55.792;2022-09-01T03:00:54;7.13;;;4.70;;
65210;SDS011;51794;52.758;55.792;2022-09-01T03:03:22;5.80;;;4.65;;
65210;SDS011;51794;52.758;55.792;2022-09-01T03:05:52;7.50;;;5.05;;
65210;SDS011;51794;52.758;55.792;2022-09-01T03:08:22;7.78;;;5.03;;
65210;SDS011;51794;52.758;55.792;2022-09-01T03:10:49;7.53;;;4.82;;
65210;SDS011;51794;52.758;55.792;2022-09-01T03:13:17;7.55;;;4.95;;
65210;SDS011;51794;52.758;55.792;2022-09-01T03:15:48;6.28;;;4.18;;
65210;SDS011;51794;52.758;55.792;2022-09-01T03:18:15;7.57;;;4.90;;
65210;SDS011;51794;52.758;55.792;2022-09-01T03:20:43;8.15;;;4.72;;
65210;SDS011;51794;52.758;55.792;2022-09-01T03:23:17;6.80;;;4.85;;
65210;SDS011;51794;52.758;55.792;2022-09-01T03:25:44;6.40;;;4.43;;
65210;SDS011;51794;52.758;55.792;2022-09-01T03:28:11;6.80;;;4.93;;
65210;SDS011;51794;52.758;55.792;2022-09-01T03:30:39;7.95;;;4.97;;
65210;SDS011;51794;52.758;55.792;2022-09-01T03:33:10;8.60;;;5.45;;
65210;SDS011;51794;52.758;55.792;2022-09-01T03:35:36;5.88;;;4.75;;
65210;SDS011;51794;52.758;55.792;2022-09-01T03:38:02;7.35;;;4.40;;
65210;SDS011;51794;52.758;55.792;2022-09-01T03:40:29;10.15;;;4.93;;
65210;SDS011;51794;52.758;55.792;2022-09-01T03:42:58;7.93;;;4.47;;
65210;SDS011;51794;52.758;55.792;2022-09-01T03:45:25;6.63;;;4.75;;
65210;SDS011;51794;52.758;55.792;2022-09-01T03:47:52;6.68;;;4.43;;
65210;SDS011;51794;52.758;55.792;2022-09-01T03:50:20;6.22;;;4.85;;
65210;SDS011;51794;52.758;55.792;2022-09-01T03:52:53;5.97;;;4.38;;
65210;SDS011;51794;52.758;55.792;2022-09-01T03:55:24;5.80;;;4.40;;
65210;SDS011;51794;52.758;55.792;2022-09-01T03:57:56;7.82;;;4.63;;
65210;SDS011;51794;52.758;55.792;2022-09-01T04:00:31;8.52;;;5.20;;
65210;SDS011;51794;52.758;55.792;2022-09-01T04:03:00;7.93;;;4.70;;
65210;SDS011;51794;52.758;55.792;2022-09-01T04:05:30;10.43;;;4.53;;
65210;SDS011;51794;52.758;55.792;2022-09-01T04:07:59;5.25;;;4.50;;
65210;SDS011;51794;52.758;55.792;2022-09-01T04:10:29;11.32;;;4.68;;
65210;SDS011;51794;52.758;55.792;2022-09-01T04:12:59;11.07;;;4.53;;
65210;SDS011;51794;52.758;55.792;2022-09-01T04:15:26;11.80;;;4.40;;
65210;SDS011;51794;52.758;55.792;2022-09-01T04:17:53;9.95;;;4.65;;
65210;SDS011;51794;52.758;55.792;2022-09-01T04:20:35;10.02;;;4.53;;
65210;SDS011;51794;52.758;55.792;2022-09-01T04:25:56;8.18;;;4.35;;
65210;SDS011;51794;52.758;55.792;2022-09-01T04:28:25;7.50;;;4.47;;
65210;SDS011;51794;52.758;55.792;2022-09-01T04:30:58;10.45;;;4.72;;
65210;SDS011;51794;52.758;55.792;2022-09-01T04:33:30;10.32;;;4.65;;
65210;SDS011;51794;52.758;55.792;2022-09-01T04:36:01;13.20;;;4.60;;
65210;SDS011;51794;52.758;55.792;2022-09-01T04:38:28;8.13;;;4.60;;
65210;SDS011;51794;52.758;55.792;2022-09-01T04:40:55;9.38;;;4.40;;
65210;SDS011;51794;52.758;55.792;2022-09-01T04:43:24;8.35;;;4.30;;
65210;SDS011;51794;52.758;55.792;2022-09-01T04:45:51;8.63;;;4.13;;
65210;SDS011;51794;52.758;55.792;2022-09-01T04:48:18;9.02;;;4.78;;
65210;SDS011;51794;52.758;55.792;2022-09-01T04:50:47;8.48;;;4.18;;
65210;SDS011;51794;52.758;55.792;2022-09-01T04:53:14;8.93;;;4.30;;
65210;SDS011;51794;52.758;55.792;2022-09-01T04:55:41;9.05;;;4.32;;
65210;SDS011;51794;52.758;55.792;2022-09-01T04:58:12;6.40;;;3.72;;
65210;SDS011;51794;52.758;55.792;2022-09-01T05:00:42;7.70;;;4.15;;
65210;SDS011;51794;52.758;55.792;2022-09-01T05:03:20;5.75;;;4.10;;
65210;SDS011;51794;52.758;55.792;2022-09-01T05:05:48;6.82;;;3.78;;
65210;SDS011;51794;52.758;55.792;2022-09-01T05:08:16;9.40;;;3.90;;
65210;SDS011;51794;52.758;55.792;2022-09-01T05:10:46;6.13;;;3.72;;
65210;SDS011;51794;52.758;55.792;2022-09-01T05:13:18;6.47;;;4.00;;
65210;SDS011;51794;52.758;55.792;2022-09-01T05:15:47;11.48;;;4.00;;
65210;SDS011;51794;52.758;55.792;2022-09-01T05:18:24;9.45;;;4.30;;
65210;SDS011;51794;52.758;55.792;2022-09-01T05:20:53;10.30;;;4.20;;
65210;SDS011;51794;52.758;55.792;2022-09-01T05:23:20;10.68;;;4.50;;
65210;SDS011;51794;52.758;55.792;2022-09-01T05:25:48;9.35;;;5.20;;
65210;SDS011;51794;52.758;55.792;2022-09-01T05:28:19;7.82;;;4.70;;
65210;SDS011;51794;52.758;55.792;2022-09-01T05:30:50;7.80;;;4.82;;
65210;SDS011;51794;52.758;55.792;2022-09-01T05:33:18;9.47;;;4.97;;
65210;SDS011;51794;52.758;55.792;2022-09-01T05:35:56;11.13;;;5.25;;
65210;SDS011;51794;52.758;55.792;2022-09-01T05:38:26;9.32;;;4.90;;
65210;SDS011;51794;52.758;55.792;2022-09-01T05:40:56;8.25;;;4.50;;
65210;SDS011;51794;52.758;55.792;2022-09-01T05:43:23;7.80;;;4.60;;
65210;SDS011;51794;52.758;55.792;2022-09-01T05:45:52;10.02;;;4.70;;
65210;SDS011;51794;52.758;55.792;2022-09-01T05:48:18;7.88;;;4.57;;
65210;SDS011;51794;52.758;55.792;2022-09-01T05:50:48;8.40;;;4.78;;
65210;SDS011;51794;52.758;55.792;2022-09-01T05:53:17;13.90;;;4.70;;
65210;SDS011;51794;52.758;55.792;2022-09-01T05:55:43;9.55;;;4.55;;
65210;SDS011;51794;52.758;55.792;2022-09-01T05:58:14;8.35;;;4.90;;
65210;SDS011;51794;52.758;55.792;2022-09-01T06:00:41;9.43;;;4.70;;
65210;SDS011;51794;52.758;55.792;2022-09-01T06:03:10;9.80;;;4.88;;
65210;SDS011;51794;52.758;55.792;2022-09-01T06:05:36;9.25;;;5.20;;
65210;SDS011;51794;52.758;55.792;2022-09-01T06:08:03;8.02;;;4.85;;
65210;SDS011;51794;52.758;55.792;2022-09-01T06:10:30;11.63;;;4.82;;
65210;SDS011;51794;52.758;55.792;2022-09-01T06:12:57;8.95;;;4.93;;
65210;SDS011;51794;52.758;55.792;2022-09-01T06:15:27;9.70;;;4.80;;
65210;SDS011;51794;52.758;55.792;2022-09-01T06:17:55;9.85;;;4.90;;
65210;SDS011;51794;52.758;55.792;2022-09-01T06:20:22;8.75;;;4.82;;
65210;SDS011;51794;52.758;55.792;2022-09-01T06:22:48;10.23;;;4.68;;
65210;SDS011;51794;52.758;55.792;2022-09-01T06:25:17;11.32;;;4.60;;
65210;SDS011;51794;52.758;55.792;2022-09-01T06:27:44;9.57;;;4.72;;
65210;SDS011;51794;52.758;55.792;2022-09-01T06:30:13;8.18;;;4.93;;
65210;SDS011;51794;52.758;55.792;2022-09-01T06:32:45;12.05;;;5.15;;
65210;SDS011;51794;52.758;55.792;2022-09-01T06:35:14;9.20;;;4.75;;
65210;SDS011;51794;52.758;55.792;2022-09-01T06:37:41;11.23;;;5.13;;
65210;SDS011;51794;52.758;55.792;2022-09-01T06:40:14;7.78;;;4.93;;
65210;SDS011;51794;52.758;55.792;2022-09-01T06:42:48;9.07;;;4.93;;
65210;SDS011;51794;52.758;55.792;2022-09-01T06:45:21;10.77;;;4.75;;
65210;SDS011;51794;52.758;55.792;2022-09-01T06:47:49;7.95;;;4.53;;
65210;SDS011;51794;52.758;55.792;2022-09-01T06:50:18;10.85;;;4.60;;
65210;SDS011;51794;52.758;55.792;2022-09-01T06:52:47;9.52;;;4.78;;
65210;SDS011;51794;52.758;55.792;2022-09-01T06:55:23;14.43;;;5.05;;
65210;SDS011;51794;52.758;55.792;2022-09-01T06:57:49;9.75;;;5.38;;
65210;SDS011;51794;52.758;55.792;2022-09-01T07:00:16;10.05;;;5.38;;
65210;SDS011;51794;52.758;55.792;2022-09-01T07:02:46;12.88;;;5.20;;
65210;SDS011;51794;52.758;55.792;2022-09-01T07:05:17;7.22;;;5.10;;
65210;SDS011;51794;52.758;55.792;2022-09-01T07:07:46;10.35;;;4.53;;
65210;SDS011;51794;52.758;55.792;2022-09-01T07:10:19;7.50;;;4.55;;
65210;SDS011;51794;52.758;55.792;2022-09-01T07:12:50;9.50;;;4.45;;
65210;SDS011;51794;52.758;55.792;2022-09-01T07:15:18;6.85;;;4.05;;
65210;SDS011;51794;52.758;55.792;2022-09-01T07:17:49;8.77;;;4.20;;
65210;SDS011;51794;52.758;55.792;2022-09-01T07:20:20;7.72;;;4.18;;
65210;SDS011;51794;52.758;55.792;2022-09-01T07:22:49;13.63;;;4.28;;
65210;SDS011;51794;52.758;55.792;2022-09-01T07:25:17;7.93;;;3.97;;
65210;SDS011;51794;52.758;55.792;2022-09-01T07:27:44;7.72;;;4.00;;
65210;SDS011;51794;52.758;55.792;2022-09-01T07:30:18;9.48;;;4.40;;
65210;SDS011;51794;52.758;55.792;2022-09-01T07:32:46;10.82;;;4.78;;
65210;SDS011;51794;52.758;55.792;2022-09-01T07:35:15;10.18;;;4.25;;
65210;SDS011;51794;52.758;55.792;2022-09-01T07:40:09;8.30;;;4.97;;
65210;SDS011;51794;52.758;55.792;2022-09-01T07:42:38;5.82;;;4.30;;
65210;SDS011;51794;52.758;55.792;2022-09-01T07:45:08;11.60;;;4.15;;
65210;SDS011;51794;52.758;55.792;2022-09-01T07:47:36;5.68;;;3.45;;
65210;SDS011;51794;52.758;55.792;2022-09-01T07:50:06;5.30;;;3.88;;
65210;SDS011;51794;52.758;55.792;2022-09-01T07:52:37;8.65;;;4.30;;
65210;SDS011;51794;52.758;55.792;2022-09-01T07:55:08;5.60;;;3.47;;
65210;SDS011;51794;52.758;55.792;2022-09-01T07:57:37;14.15;;;4.50;;
65210;SDS011;51794;52.758;55.792;2022-09-01T08:00:10;8.32;;;4.45;;
65210;SDS011;51794;52.758;55.792;2022-09-01T08:02:37;10.18;;;4.70;;
65210;SDS011;51794;52.758;55.792;2022-09-01T08:05:05;6.63;;;4.88;;
65210;SDS011;51794;52.758;55.792;2022-09-01T08:07:36;8.90;;;4.57;;
65210;SDS011;51794;52.758;55.792;2022-09-01T08:10:04;8.52;;;5.10;;
65210;SDS011;51794;52.758;55.792;2022-09-01T08:12:32;9.27;;;5.10;;
65210;SDS011;51794;52.758;55.792;2022-09-01T08:15:04;8.68;;;5.20;;
65210;SDS011;51794;52.758;55.792;2022-09-01T08:17:32;9.20;;;5.13;;
65210;SDS011;51794;52.758;55.792;2022-09-01T08:19:58;13.45;;;5.72;;
65210;SDS011;51794;52.758;55.792;2022-09-01T08:22:25;7.60;;;4.72;;
65210;SDS011;51794;52.758;55.792;2022-09-01T08:24:51;7.22;;;5.07;;
65210;SDS011;51794;52.758;55.792;2022-09-01T08:27:17;7.00;;;4.97;;
65210;SDS011;51794;52.758;55.792;2022-09-01T08:29:44;8.43;;;5.03;;
65210;SDS011;51794;52.758;55.792;2022-09-01T08:32:10;9.88;;;4.95;;
65210;SDS011;51794;52.758;55.792;2022-09-01T08:34:36;9.82;;;5.40;;
65210;SDS011;51794;52.758;55.792;2022-09-01T08:37:03;11.40;;;5.60;;
65210;SDS011;51794;52.758;55.792;2022-09-01T08:39:30;8.60;;;5.15;;
65210;SDS011;51794;52.758;55.792;2022-09-01T08:42:03;9.38;;;5.40;;
65210;SDS011;51794;52.758;55.792;2022-09-01T08:47:40;11.60;;;5.93;;
65210;SDS011;51794;52.758;55.792;2022-09-01T08:50:06;11.77;;;5.90;;
65210;SDS011;51794;52.758;55.792;2022-09-01T08:52:37;12.27;;;5.97;;
65210;SDS011;51794;52.758;55.792;2022-09-01T08:57:42;8.43;;;5.80;;
65210;SDS011;51794;52.758;55.792;2022-09-01T09:00:11;8.77;;;6.30;;
65210;SDS011;51794;52.758;55.792;2022-09-01T09:14:27;12.13;;;6.60;;
65210;SDS011;51794;52.758;55.792;2022-09-01T09:16:26;9.52;;;6.15;;
65210;SDS011;51794;52.758;55.792;2022-09-01T09:19:07;10.65;;;6.32;;
65210;SDS011;51794;52.758;55.792;2022-09-01T09:21:40;10.90;;;5.80;;
65210;SDS011;51794;52.758;55.792;2022-09-01T09:24:09;8.45;;;6.03;;
65210;SDS011;51794;52.758;55.792;2022-09-01T09:26:36;10.82;;;5.32;;
65210;SDS011;51794;52.758;55.792;2022-09-01T09:29:02;9.88;;;5.88;;
65210;SDS011;51794;52.758;55.792;2022-09-01T09:34:27;8.73;;;4.85;;
65210;SDS011;51794;52.758;55.792;2022-09-01T09:37:01;7.05;;;4.65;;
65210;SDS011;51794;52.758;55.792;2022-09-01T09:42:42;10.00;;;4.45;;
65210;SDS011;51794;52.758;55.792;2022-09-01T09:45:39;7.88;;;4.05;;
65210;SDS011;51794;52.758;55.792;2022-09-01T09:48:06;7.30;;;4.22;;
65210;SDS011;51794;52.758;55.792;2022-09-01T09:50:52;9.13;;;4.78;;
65210;SDS011;51794;52.758;55.792;2022-09-01T09:53:29;8.38;;;4.40;;
65210;SDS011;51794;52.758;55.792;2022-09-01T09:56:03;8.30;;;4.43;;
65210;SDS011;51794;52.758;55.792;2022-09-01T09:58:43;10.02;;;4.40;;
65210;SDS011;51794;52.758;55.792;2022-09-01T10:03:52;6.70;;;4.10;;
65210;SDS011;51794;52.758;55.792;2022-09-01T10:09:04;7.40;;;4.85;;
65210;SDS011;51794;52.758;55.792;2022-09-01T10:11:36;10.80;;;5.60;;
65210;SDS011;51794;52.758;55.792;2022-09-01T10:14:06;9.32;;;6.10;;
65210;SDS011;51794;52.758;55.792;2022-09-01T10:16:37;13.82;;;5.90;;
65210;SDS011;51794;52.758;55.792;2022-09-01T10:19:10;13.23;;;7.10;;
65210;SDS011;51794;52.758;55.792;2022-09-01T10:21:38;14.63;;;7.63;;
65210;SDS011;51794;52.758;55.792;2022-09-01T10:24:15;11.90;;;7.20;;
65210;SDS011;51794;52.758;55.792;2022-09-01T10:27:05;13.88;;;7.63;;
65210;SDS011;51794;52.758;55.792;2022-09-01T10:29:36;11.32;;;7.47;;
65210;SDS011;51794;52.758;55.792;2022-09-01T10:32:09;9.77;;;6.63;;
65210;SDS011;51794;52.758;55.792;2022-09-01T10:34:40;8.45;;;5.75;;
65210;SDS011;51794;52.758;55.792;2022-09-01T10:37:08;8.13;;;5.10;;
65210;SDS011;51794;52.758;55.792;2022-09-01T10:39:47;7.60;;;4.93;;
65210;SDS011;51794;52.758;55.792;2022-09-01T10:42:40;7.93;;;4.07;;
65210;SDS011;51794;52.758;55.792;2022-09-01T10:45:19;7.10;;;3.90;;
65210;SDS011;51794;52.758;55.792;2022-09-01T10:50:46;8.00;;;2.92;;
65210;SDS011;51794;52.758;55.792;2022-09-01T11:20:23;6.38;;;2.40;;
65210;SDS011;51794;52.758;55.792;2022-09-01T11:25:38;12.43;;;2.83;;
65210;SDS011;51794;52.758;55.792;2022-09-01T11:30:42;11.63;;;2.85;;
65210;SDS011;51794;52.758;55.792;2022-09-01T11:36:04;10.23;;;3.97;;
65210;SDS011;51794;52.758;55.792;2022-09-01T11:38:42;11.73;;;3.95;;
65210;SDS011;51794;52.758;55.792;2022-09-01T11:41:23;9.52;;;3.30;;
65210;SDS011;51794;52.758;55.792;2022-09-01T11:43:59;9.35;;;3.05;;
65210;SDS011;51794;52.758;55.792;2022-09-01T11:46:28;8.18;;;3.25;;
65210;SDS011;51794;52.758;55.792;2022-09-01T11:49:00;8.45;;;4.03;;
65210;SDS011;51794;52.758;55.792;2022-09-01T11:51:44;5.40;;;3.05;;
65210;SDS011;51794;52.758;55.792;2022-09-01T11:54:12;6.57;;;2.65;;
65210;SDS011;51794;52.758;55.792;2022-09-01T11:56:39;8.85;;;2.70;;
65210;SDS011;51794;52.758;55.792;2022-09-01T11:59:05;6.90;;;2.42;;
65210;SDS011;51794;52.758;55.792;2022-09-01T12:01:33;5.03;;;2.40;;
65210;SDS011;51794;52.758;55.792;2022-09-01T12:07:06;8.82;;;2.83;;
65210;SDS011;51794;52.758;55.792;2022-09-01T12:09:37;6.93;;;2.80;;
65210;SDS011;51794;52.758;55.792;2022-09-01T12:12:29;9.48;;;3.17;;
65210;SDS011;51794;52.758;55.792;2022-09-01T12:15:00;9.82;;;3.00;;
65210;SDS011;51794;52.758;55.792;2022-09-01T12:22:46;8.07;;;3.08;;
65210;SDS011;51794;52.758;55.792;2022-09-01T12:25:31;9.60;;;3.00;;
65210;SDS011;51794;52.758;55.792;2022-09-01T12:27:59;8.55;;;3.38;;
65210;SDS011;51794;52.758;55.792;2022-09-01T12:30:26;11.88;;;3.45;;
65210;SDS011;51794;52.758;55.792;2022-09-01T12:32:53;10.57;;;3.33;;
65210;SDS011;51794;52.758;55.792;2022-09-01T12:35:21;9.73;;;3.60;;
65210;SDS011;51794;52.758;55.792;2022-09-01T12:37:50;10.27;;;3.08;;
65210;SDS011;51794;52.758;55.792;2022-09-01T12:40:24;7.50;;;2.90;;
65210;SDS011;51794;52.758;55.792;2022-09-01T12:42:55;7.63;;;3.00;;
65210;SDS011;51794;52.758;55.792;2022-09-01T12:48:27;8.70;;;2.90;;
65210;SDS011;51794;52.758;55.792;2022-09-01T12:53:57;10.45;;;3.53;;
65210;SDS011;51794;52.758;55.792;2022-09-01T12:56:31;6.90;;;2.75;;
65210;SDS011;51794;52.758;55.792;2022-09-01T12:59:07;6.78;;;3.28;;
65210;SDS011;51794;52.758;55.792;2022-09-01T13:01:38;8.82;;;3.00;;
65210;SDS011;51794;52.758;55.792;2022-09-01T13:06:36;6.50;;;2.95;;
65210;SDS011;51794;52.758;55.792;2022-09-01T13:09:03;8.32;;;3.10;;
65210;SDS011;51794;52.758;55.792;2022-09-01T13:11:29;9.05;;;3.10;;
65210;SDS011;51794;52.758;55.792;2022-09-01T13:13:55;7.57;;;2.72;;
65210;SDS011;51794;52.758;55.792;2022-09-01T13:16:21;8.65;;;2.75;;
65210;SDS011;51794;52.758;55.792;2022-09-01T13:18:47;6.72;;;2.90;;
65210;SDS011;51794;52.758;55.792;2022-09-01T13:21:13;9.43;;;3.00;;
65210;SDS011;51794;52.758;55.792;2022-09-01T13:23:40;7.38;;;3.10;;
65210;SDS011;51794;52.758;55.792;2022-09-01T13:26:06;8.60;;;3.03;;
65210;SDS011;51794;52.758;55.792;2022-09-01T13:28:32;10.27;;;2.53;;
65210;SDS011;51794;52.758;55.792;2022-09-01T13:30:59;7.20;;;2.92;;
65210;SDS011;51794;52.758;55.792;2022-09-01T13:33:30;7.50;;;2.78;;
65210;SDS011;51794;52.758;55.792;2022-09-01T13:35:56;10.02;;;3.08;;
65210;SDS011;51794;52.758;55.792;2022-09-01T13:38:23;10.25;;;3.58;;
65210;SDS011;51794;52.758;55.792;2022-09-01T13:40:49;6.95;;;2.80;;
65210;SDS011;51794;52.758;55.792;2022-09-01T13:43:17;10.60;;;3.55;;
65210;SDS011;51794;52.758;55.792;2022-09-01T13:45:45;10.05;;;4.18;;
65210;SDS011;51794;52.758;55.792;2022-09-01T13:48:12;12.93;;;4.60;;
65210;SDS011;51794;52.758;55.792;2022-09-01T13:50:39;6.65;;;3.53;;
65210;SDS011;51794;52.758;55.792;2022-09-01T13:53:06;8.60;;;2.75;;
65210;SDS011;51794;52.758;55.792;2022-09-01T13:55:34;7.55;;;3.08;;
65210;SDS011;51794;52.758;55.792;2022-09-01T13:58:04;10.38;;;2.97;;
65210;SDS011;51794;52.758;55.792;2022-09-01T14:00:32;9.70;;;3.00;;
65210;SDS011;51794;52.758;55.792;2022-09-01T14:03:02;9.43;;;3.30;;
65210;SDS011;51794;52.758;55.792;2022-09-01T14:05:32;8.23;;;3.80;;
65210;SDS011;51794;52.758;55.792;2022-09-01T14:08:01;10.90;;;3.47;;
65210;SDS011;51794;52.758;55.792;2022-09-01T14:10:28;11.90;;;3.42;;
65210;SDS011;51794;52.758;55.792;2022-09-01T14:12:58;9.52;;;3.20;;
65210;SDS011;51794;52.758;55.792;2022-09-01T14:15:24;9.57;;;2.90;;
65210;SDS011;51794;52.758;55.792;2022-09-01T14:17:51;9.10;;;3.13;;
65210;SDS011;51794;52.758;55.792;2022-09-01T14:20:19;9.68;;;3.20;;
65210;SDS011;51794;52.758;55.792;2022-09-01T14:22:47;12.77;;;3.50;;
65210;SDS011;51794;52.758;55.792;2022-09-01T14:25:15;10.00;;;3.30;;
65210;SDS011;51794;52.758;55.792;2022-09-01T14:27:42;7.10;;;2.92;;
65210;SDS011;51794;52.758;55.792;2022-09-01T14:30:10;9.40;;;3.20;;
65210;SDS011;51794;52.758;55.792;2022-09-01T14:32:50;9.38;;;3.22;;
65210;SDS011;51794;52.758;55.792;2022-09-01T14:35:17;8.25;;;4.00;;
65210;SDS011;51794;52.758;55.792;2022-09-01T14:37:45;13.18;;;3.85;;
65210;SDS011;51794;52.758;55.792;2022-09-01T14:40:12;11.20;;;4.03;;
65210;SDS011;51794;52.758;55.792;2022-09-01T14:42:43;14.60;;;6.55;;
65210;SDS011;51794;52.758;55.792;2022-09-01T14:45:17;16.98;;;9.35;;
65210;SDS011;51794;52.758;55.792;2022-09-01T14:47:48;17.33;;;8.68;;
65210;SDS011;51794;52.758;55.792;2022-09-01T14:50:16;15.57;;;7.95;;
65210;SDS011;51794;52.758;55.792;2022-09-01T14:52:45;13.60;;;6.65;;
65210;SDS011;51794;52.758;55.792;2022-09-01T14:55:11;12.15;;;6.30;;
65210;SDS011;51794;52.758;55.792;2022-09-01T14:57:38;12.60;;;6.45;;
65210;SDS011;51794;52.758;55.792;2022-09-01T15:00:05;14.23;;;6.35;;
65210;SDS011;51794;52.758;55.792;2022-09-01T15:02:36;16.60;;;5.65;;
65210;SDS011;51794;52.758;55.792;2022-09-01T15:05:07;13.50;;;5.38;;
65210;SDS011;51794;52.758;55.792;2022-09-01T15:07:34;13.80;;;4.35;;
65210;SDS011;51794;52.758;55.792;2022-09-01T15:10:00;8.32;;;4.35;;
65210;SDS011;51794;52.758;55.792;2022-09-01T15:12:27;10.60;;;4.07;;
65210;SDS011;51794;52.758;55.792;2022-09-01T15:14:58;7.88;;;3.78;;
65210;SDS011;51794;52.758;55.792;2022-09-01T15:17:34;12.13;;;4.05;;
65210;SDS011;51794;52.758;55.792;2022-09-01T15:20:00;18.02;;;8.25;;
65210;SDS011;51794;52.758;55.792;2022-09-01T15:22:48;21.40;;;10.13;;
65210;SDS011;51794;52.758;55.792;2022-09-01T15:25:15;16.13;;;8.25;;
65210;SDS011;51794;52.758;55.792;2022-09-01T15:27:41;16.65;;;8.98;;
65210;SDS011;51794;52.758;55.792;2022-09-01T15:30:07;13.70;;;5.95;;
65210;SDS011;51794;52.758;55.792;2022-09-01T15:32:40;13.40;;;8.77;;
65210;SDS011;51794;52.758;55.792;2022-09-01T15:35:07;13.80;;;6.80;;
65210;SDS011;51794;52.758;55.792;2022-09-01T15:37:34;10.77;;;5.32;;
65210;SDS011;51794;52.758;55.792;2022-09-01T15:40:00;12.07;;;5.90;;
65210;SDS011;51794;52.758;55.792;2022-09-01T15:42:26;6.20;;;4.22;;
65210;SDS011;51794;52.758;55.792;2022-09-01T15:44:52;11.40;;;5.82;;
65210;SDS011;51794;52.758;55.792;2022-09-01T15:47:18;9.95;;;4.25;;
65210;SDS011;51794;52.758;55.792;2022-09-01T15:49:44;9.70;;;4.82;;
65210;SDS011;51794;52.758;55.792;2022-09-01T15:52:10;7.80;;;4.53;;
65210;SDS011;51794;52.758;55.792;2022-09-01T15:54:36;8.82;;;4.18;;
65210;SDS011;51794;52.758;55.792;2022-09-01T15:57:04;11.30;;;4.50;;
65210;SDS011;51794;52.758;55.792;2022-09-01T15:59:30;11.38;;;4.60;;
65210;SDS011;51794;52.758;55.792;2022-09-01T16:01:57;13.75;;;5.15;;
65210;SDS011;51794;52.758;55.792;2022-09-01T16:04:23;15.15;;;6.25;;
65210;SDS011;51794;52.758;55.792;2022-09-01T16:06:49;15.55;;;5.88;;
65210;SDS011;51794;52.758;55.792;2022-09-01T16:09:17;9.02;;;5.00;;
65210;SDS011;51794;52.758;55.792;2022-09-01T16:11:45;9.93;;;4.93;;
65210;SDS011;51794;52.758;55.792;2022-09-01T16:14:11;10.82;;;4.28;;
65210;SDS011;51794;52.758;55.792;2022-09-01T16:16:48;14.75;;;4.70;;
65210;SDS011;51794;52.758;55.792;2022-09-01T16:24:32;7.00;;;3.90;;
65210;SDS011;51794;52.758;55.792;2022-09-01T16:27:06;17.98;;;7.00;;